| Date | Time | Temp. (oF) | Dew Point (oF) | Rel. Hum. (%) | Press. (in.) | Wind Dir. | Wind Speed (mph) | Hourly Rainfall (in.) |
|
|---|---|---|---|---|---|---|---|---|---|
| 1 | 08/20 | 00:00 | 70 | 69 | 97 | 30.06 | E | 1 | 0.00 |
| 2 | 08/19 | 23:00 | 70 | 69 | 98 | 30.06 | ESE | 2 | 0.00 |
| 3 | 08/19 | 22:00 | 70 | 69 | 97 | 30.05 | E | 3 | 0.00 |
| 4 | miss | miss | miss | miss | miss | miss | miss | miss | |
| 5 | 08/19 | 21:38 | 70 | 68 | 96 | 30.06 | ESE | 2 | 0.00 |
| 6 | miss | miss | miss | miss | miss | miss | miss | miss | |
| 7 | 08/19 | 21:36 | 70 | 68 | 96 | 30.05 | SE | 2 | 0.00 |
| 8 | miss | miss | miss | miss | miss | miss | miss | miss | |
| 9 | 08/19 | 21:34 | 70 | 68 | 96 | 30.05 | ESE | 2 | 0.00 |
| 10 | miss | miss | miss | miss | miss | miss | miss | miss | |
| 11 | 08/19 | 21:32 | 70 | 68 | 96 | 30.05 | E | 2 | 0.00 |
| 12 | miss | miss | miss | miss | miss | miss | miss | miss | |
| 13 | 08/19 | 21:30 | 71 | 69 | 96 | 30.06 | E | 3 | 0.00 |
| 14 | miss | miss | miss | miss | miss | miss | miss | miss | |
| 15 | 08/19 | 21:28 | 70 | 68 | 96 | 30.06 | ESE | 2 | 0.00 |
| 16 | miss | miss | miss | miss | miss | miss | miss | miss | |
| 17 | 08/19 | 21:26 | 71 | 69 | 96 | 30.06 | ESE | 1 | 0.00 |
| 18 | miss | miss | miss | miss | miss | miss | miss | miss | |
| 19 | 08/19 | 21:24 | 71 | 69 | 96 | 30.06 | E | 1 | 0.00 |
| 20 | miss | miss | miss | miss | miss | miss | miss | miss | |
| 21 | 08/19 | 21:22 | 71 | 69 | 96 | 30.06 | E | 1 | 0.00 |
| 22 | miss | miss | miss | miss | miss | miss | miss | miss | |
| 23 | 08/19 | 21:20 | 71 | 69 | 96 | 30.06 | E | 1 | 0.00 |
| 24 | miss | miss | miss | miss | miss | miss | miss | miss | |
| 25 | 08/19 | 21:18 | 71 | 69 | 96 | 30.06 | E | 1 | 0.00 |
| 26 | miss | miss | miss | miss | miss | miss | miss | miss | |
| 27 | 08/19 | 21:18 | 71 | 69 | 96 | 30.06 | E | 1 | 0.00 |
| 28 | 08/19 | 21:00 | 71 | 69 | 96 | 30.07 | E | 3 | 0.00 |
| 29 | 08/19 | 20:00 | 71 | 69 | 96 | 30.06 | E | 2 | 0.00 |
| 30 | 08/19 | 19:00 | 70 | 68 | 96 | 30.05 | S | 2 | 0.00 |
| 31 | 08/19 | 18:00 | 70 | 68 | 95 | 30.05 | SSE | 1 | 0.00 |
| 32 | 08/19 | 17:00 | 72 | 66 | 84 | 30.06 | E | 3 | 0.00 |
| 33 | 08/19 | 16:00 | 73 | 64 | 76 | 30.06 | ESE | 4 | 0.00 |
| 34 | 08/19 | 15:00 | 74 | 66 | 77 | 30.07 | SSE | 2 | 0.00 |
| 35 | 08/19 | 14:00 | 73 | 66 | 80 | 30.09 | SE | 6 | 0.00 |
| 36 | 08/19 | 13:00 | 75 | 66 | 76 | 30.10 | S | 6 | 0.00 |
| 37 | miss | miss | miss | miss | miss | miss | miss | miss | |
| 38 | 08/19 | 12:05 | 71 | 67 | 88 | 30.11 | S | 5 | 0.00 |
| 39 | miss | miss | miss | miss | miss | miss | miss | miss | |
| 40 | 08/19 | 12:03 | 71 | 66 | 87 | 30.11 | S | 3 | 0.00 |
| 41 | miss | miss | miss | miss | miss | miss | miss | miss | |
| 42 | 08/19 | 12:01 | 71 | 66 | 87 | 30.10 | SE | 3 | 0.00 |
| 43 | miss | miss | miss | miss | miss | miss | miss | miss | |
| 44 | 08/19 | 11:59 | 71 | 66 | 87 | 30.11 | SE | 4 | 0.00 |
| 45 | 08/19 | 11:58 | 71 | 66 | 87 | 30.11 | E | 6 | 0.00 |
| 46 | 08/19 | 11:57 | 71 | 66 | 87 | 30.11 | SE | 3 | 0.00 |
| 47 | 08/19 | 11:56 | 71 | 67 | 88 | 30.11 | SSE | 2 | 0.00 |
| 48 | 08/19 | 11:55 | 70 | 65 | 87 | 30.11 | S | 2 | 0.00 |
| 49 | miss | miss | miss | miss | miss | miss | miss | miss | |
| 50 | 08/19 | 11:54 | 70 | 65 | 87 | 30.11 | SSE | 4 | 0.00 |
| 51 | miss | miss | miss | miss | miss | miss | miss | miss | |
| 52 | 08/19 | 11:54 | 70 | 65 | 87 | 30.11 | SSE | 4 | 0.00 |
| 53 | miss | miss | miss | miss | miss | miss | miss | miss | |
| 54 | 08/19 | 11:54 | 70 | 65 | 87 | 30.11 | SSE | 4 | 0.00 |
| 55 | miss | miss | miss | miss | miss | miss | miss | miss | |
| 56 | 08/19 | 11:54 | 70 | 65 | 87 | 30.11 | SSE | 4 | 0.00 |
| 57 | miss | miss | miss | miss | miss | miss | miss | miss | |
| 58 | 08/19 | 11:54 | 70 | 65 | 87 | 30.11 | SSE | 4 | 0.00 |
| 59 | miss | miss | miss | miss | miss | miss | miss | miss | |
| 60 | 08/19 | 11:54 | 70 | 65 | 87 | 30.11 | SSE | 4 | 0.00 |
| 61 | miss | miss | miss | miss | miss | miss | miss | miss | |
| 62 | 08/19 | 11:00 | 73 | 71 | 95 | 30.10 | SSE | 4 | 0.00 |
| 63 | 08/19 | 10:00 | 72 | 72 | 100 | 30.09 | SSE | 1 | 0.00 |
| 64 | 08/19 | 09:00 | 71 | 71 | 100 | 30.08 | E | 0 | 0.00 |
| 65 | 08/19 | 08:00 | 71 | 71 | 100 | 30.08 | ESE | 3 | 0.02 |
| 66 | 08/19 | 07:00 | 71 | 70 | 99 | 30.07 | NNW | 1 | 0.03 |
| 67 | 08/19 | 06:00 | 72 | 70 | 96 | 30.04 | S | 1 | 0.00 |
| 68 | 08/19 | 05:00 | 72 | 71 | 97 | 30.04 | E | 1 | 0.00 |
| 69 | 08/19 | 04:00 | 72 | 71 | 97 | 30.05 | ESE | 3 | 0.00 |
| 70 | 08/19 | 03:00 | 72 | 70 | 96 | 30.06 | ESE | 1 | 0.00 |
| 71 | 08/19 | 02:00 | 73 | 71 | 94 | 30.06 | ESE | 2 | 0.00 |
| 72 | 08/19 | 01:00 | 73 | 70 | 92 | 30.06 | E | 3 | 0.00 |
| 73 | 08/19 | 00:00 | 74 | 70 | 90 | 30.05 | S | 1 | -0.05 |
| 74 | 08/18 | 23:00 | 74 | 69 | 87 | 30.04 | ENE | 2 | 0.00 |
| 75 | 08/18 | 22:00 | 76 | 70 | 83 | 30.04 | S | 4 | 0.00 |
| 76 | 08/18 | 21:00 | 77 | 68 | 75 | 30.02 | SSE | 2 | 0.00 |
| 77 | 08/18 | 20:00 | 80 | 70 | 72 | 30.02 | SE | 0 | 0.00 |
| 78 | 08/18 | 19:00 | 82 | 68 | 63 | 30.01 | S | 4 | 0.00 |
| 79 | 08/18 | 18:00 | 84 | 67 | 58 | 30.01 | S | 4 | 0.00 |
| 80 | 08/18 | 17:00 | 85 | 69 | 60 | 30.01 | E | 5 | 0.00 |
| 81 | 08/18 | 16:00 | 85 | 68 | 58 | 30.03 | SSE | 6 | 0.00 |
| 82 | 08/18 | 15:00 | 86 | 68 | 56 | 30.04 | SE | 4 | 0.00 |
| 83 | 08/18 | 14:00 | 84 | 69 | 61 | 30.06 | SSW | 6 | 0.00 |
| 84 | 08/18 | 13:00 | 82 | 67 | 62 | 30.07 | ESE | 3 | 0.00 |
| 85 | 08/18 | 12:00 | 80 | 64 | 59 | 30.08 | S | 5 | 0.00 |
| 86 | 08/18 | 11:00 | 78 | 64 | 63 | 30.09 | ESE | 4 | 0.00 |
| 87 | 08/18 | 10:00 | 74 | 62 | 67 | 30.09 | E | 5 | 0.00 |
| 88 | 08/18 | 09:00 | 71 | 64 | 80 | 30.09 | NE | 1 | 0.00 |
| 89 | 08/18 | 08:00 | 65 | 64 | 100 | 30.08 | ENE | 2 | 0.00 |
| 90 | 08/18 | 07:00 | 63 | 63 | 100 | 30.07 | NNW | 0 | 0.00 |
| 91 | 08/18 | 06:00 | 64 | 63 | 100 | 30.06 | NNW | 0 | 0.00 |
| 92 | 08/18 | 05:00 | 65 | 64 | 100 | 30.05 | NNW | 0 | 0.00 |
| 93 | 08/18 | 04:00 | 66 | 66 | 100 | 30.04 | SSE | 0 | 0.00 |
| 94 | 08/18 | 03:00 | 67 | 67 | 100 | 30.04 | ENE | 0 | 0.00 |
| 95 | 08/18 | 02:00 | 67 | 66 | 98 | 30.04 | NNW | 1 | 0.00 |
| 96 | 08/18 | 01:00 | 68 | 66 | 95 | 30.05 | S | 0 | 0.00 |
| 97 | 08/18 | 00:00 | 69 | 67 | 94 | 30.04 | SSW | 0 | 0.00 |